Hlavní strana
METAR-TAF:

METAR-TAF

Letiště :

Dubaj, Spojené arabské emiráty

Mezinárodní letiště Dubaj

zeměpisná šířka: 25-15-10N, zeměpisná délka: 055-21-52E, výška: 8 m

Aktuální stav počasí

Zpráva byla vytvořena před 52 minutami, v 02:00 UTC
Východní vítr 7 kt
Teplota 25°C
Vlhkost vzduchu 47%
Tlak 1009 hPa
Viditelnost 10 km a více
Žádná oblačnost pod 1500 m, nevyskytují se cumulonimby.

METAR: OMDB 220200Z 10007KT CAVOK 25/13 Q1009 NOSIG

Čas: 06:52 (02:52 UTC)

Předpověď počasí

Zpráva byla vytvořena před 3 hodinami a 53 minutami, v 22:59 UTC
Předpověď platná od 22 v 00 UTC do 23 v 06 UTC
Jihovýchodní vítr 7 kt
Viditelnost 10 km a více
Žádná oblačnost pod 1500 m, nevyskytují se cumulonimby.
Změna
od 22 v 08 UTC do 22 v 10 UTC
Severoseverozápadní vítr 12 kt
Změna
od 22 v 15 UTC do 22 v 17 UTC
Východní vítr 5 kt
Změna
od 23 v 03 UTC do 23 v 05 UTC
Jižní vítr 12 kt

TAF: OMDB 212259Z 2200/2306 14007KT CAVOK BECMG 2208/2210 34012KT BECMG 2215/2217 08005KT BECMG 2303/2305 17012KT

Stav a předpovědi počasí z více než 4 000 letišť (zprávy METAR a TAF).

Červené a žluté tečky na mapě představují dostupné meteorologické stanice.

Když kurzor umístíte na tečku, zobrazí se název stanice.

Pak kliknutím zobrazíte stav a předpověď počasí.

Chcete-li změnit mapu, kliknutím na zelené tlačítko se znaménkem +mapu přiblížíte, kliknutím na zelené tlačítko se znaménkem – mapu oddálíte a kliknutím na zelené šipky přejdete na sousední mapy.


METAR-TAF: